createdAt,value
2022-10-11T00:00:21.217Z,9.66
2022-10-11T00:01:21.340Z,9.61
2022-10-11T00:02:21.197Z,9.58
2022-10-11T00:03:21.176Z,9.57
2022-10-11T00:04:21.197Z,9.57
2022-10-11T00:05:21.167Z,9.54
2022-10-11T00:06:21.152Z,9.50
2022-10-11T00:07:21.139Z,9.47
2022-10-11T00:08:21.148Z,9.42
2022-10-11T00:09:21.127Z,9.38
2022-10-11T00:10:21.109Z,9.36
2022-10-11T00:11:21.100Z,9.32
2022-10-11T00:12:21.089Z,9.29
2022-10-11T00:13:21.158Z,9.21
2022-10-11T00:14:21.071Z,9.21
2022-10-11T00:15:21.150Z,9.20
2022-10-11T00:16:21.046Z,9.17
2022-10-11T00:17:21.029Z,9.17
2022-10-11T00:18:21.026Z,9.14
2022-10-11T00:19:21.009Z,9.13
2022-10-11T00:20:21.012Z,9.08
2022-10-11T00:21:20.979Z,9.04
2022-10-11T00:22:20.980Z,9.01
2022-10-11T00:23:21.089Z,8.96
2022-10-11T00:24:20.961Z,8.94
2022-10-11T00:25:20.971Z,8.92
2022-10-11T00:26:20.941Z,8.87
2022-10-11T00:27:20.920Z,8.87
2022-10-11T00:28:20.942Z,8.86
2022-10-11T00:29:20.902Z,8.86
2022-10-11T00:30:20.907Z,8.84
2022-10-11T00:31:20.881Z,8.79
2022-10-11T00:32:20.870Z,8.76
2022-10-11T00:33:20.852Z,8.73
2022-10-11T00:34:20.842Z,8.68
2022-10-11T00:35:20.864Z,8.65
2022-10-11T00:36:20.822Z,8.63
2022-10-11T00:37:20.819Z,8.62
2022-10-11T00:38:20.802Z,8.59
2022-10-11T00:39:20.792Z,8.56
2022-10-11T00:40:20.793Z,8.55
2022-10-11T00:41:20.776Z,8.55
2022-10-11T00:42:20.755Z,8.53
2022-10-11T00:43:20.756Z,8.50
2022-10-11T00:44:20.734Z,8.47
2022-10-11T00:45:20.745Z,8.48
2022-10-11T00:46:20.727Z,8.48
2022-10-11T00:47:20.724Z,8.47
2022-10-11T00:48:20.695Z,8.43
2022-10-11T00:49:20.675Z,8.40
2022-10-11T00:50:20.684Z,8.37
2022-10-11T00:51:20.703Z,8.34
2022-10-11T00:52:20.652Z,8.30
2022-10-11T00:53:20.639Z,8.30
2022-10-11T00:54:20.638Z,8.29
2022-10-11T00:55:20.634Z,8.26
2022-10-11T00:56:20.606Z,8.23
2022-10-11T00:57:20.586Z,8.20
2022-10-11T00:58:20.590Z,8.18
2022-10-11T00:59:20.575Z,8.16
2022-10-11T01:00:20.598Z,8.18
2022-10-11T01:01:20.618Z,8.18
2022-10-11T01:02:20.539Z,8.12
2022-10-11T01:03:20.516Z,8.08
2022-10-11T01:04:20.575Z,8.07
2022-10-11T01:05:35.506Z,8.05
2022-10-11T01:06:21.489Z,8.08
2022-10-11T01:07:20.537Z,8.08
2022-10-11T01:08:20.488Z,8.05
2022-10-11T01:09:20.458Z,8.05
2022-10-11T01:10:20.469Z,8.07
2022-10-11T01:11:20.449Z,8.10
2022-10-11T01:12:20.425Z,8.12
2022-10-11T01:13:20.427Z,8.15
2022-10-11T01:14:20.400Z,8.11
2022-10-11T01:15:20.414Z,8.07
2022-10-11T01:16:20.388Z,8.10
2022-10-11T01:17:20.378Z,8.10
2022-10-11T01:18:20.358Z,8.11
2022-10-11T01:19:20.360Z,8.10
2022-10-11T01:20:20.369Z,8.05
2022-10-11T01:21:20.327Z,7.98
2022-10-11T01:22:20.318Z,7.93
2022-10-11T01:23:20.401Z,7.92
2022-10-11T01:24:20.288Z,7.89
2022-10-11T01:25:20.351Z,7.86
2022-10-11T01:26:20.292Z,7.89
2022-10-11T01:27:20.269Z,7.89
2022-10-11T01:28:20.310Z,7.89
2022-10-11T01:29:20.240Z,7.85
2022-10-11T01:30:20.241Z,7.79
2022-10-11T01:31:20.211Z,7.74
2022-10-11T01:32:20.212Z,7.72
2022-10-11T01:33:20.202Z,7.69
2022-10-11T01:34:20.192Z,7.71
2022-10-11T01:35:20.214Z,7.71
2022-10-11T01:36:20.162Z,7.69
2022-10-11T01:37:20.154Z,7.68
2022-10-11T01:38:20.141Z,7.63
2022-10-11T01:39:20.131Z,7.63
2022-10-11T01:40:20.173Z,7.60
2022-10-11T01:41:20.114Z,7.58
2022-10-11T01:42:20.099Z,7.57
2022-10-11T01:43:20.082Z,7.53
2022-10-11T01:44:20.082Z,7.57
2022-10-11T01:45:20.081Z,7.55
2022-10-11T01:46:20.063Z,7.53
2022-10-11T01:47:20.060Z,7.50
2022-10-11T01:48:20.041Z,7.48
2022-10-11T01:49:20.023Z,7.52
2022-10-11T01:50:20.023Z,7.55
2022-10-11T01:51:19.993Z,7.53
2022-10-11T01:52:19.994Z,7.53
2022-10-11T01:53:19.977Z,7.58
2022-10-11T01:54:19.967Z,7.60
2022-10-11T01:55:19.974Z,7.60
2022-10-11T01:56:19.953Z,7.57
2022-10-11T01:57:19.930Z,7.57
2022-10-11T01:58:19.926Z,7.58
2022-10-11T01:59:19.917Z,7.58
2022-10-11T02:00:19.924Z,7.61
2022-10-11T02:01:19.907Z,7.61
2022-10-11T02:02:19.872Z,7.61
2022-10-11T02:03:19.873Z,7.61
2022-10-11T02:04:19.854Z,7.61
2022-10-11T02:05:19.869Z,7.61
2022-10-11T02:06:19.864Z,7.58
2022-10-11T02:07:19.822Z,7.55
2022-10-11T02:08:19.819Z,7.57
2022-10-11T02:09:19.829Z,7.57
2022-10-11T02:10:19.807Z,7.55
2022-10-11T02:11:19.785Z,7.55
2022-10-11T02:12:19.774Z,7.52
2022-10-11T02:13:19.758Z,7.52
2022-10-11T02:14:19.745Z,7.50
2022-10-11T02:15:19.744Z,7.48
2022-10-11T02:16:19.747Z,7.48
2022-10-11T02:17:19.712Z,7.46
2022-10-11T02:18:19.714Z,7.45
2022-10-11T02:19:19.685Z,7.39
2022-10-11T02:20:19.698Z,7.35
2022-10-11T02:21:19.665Z,7.32
2022-10-11T02:22:19.658Z,7.32
2022-10-11T02:23:19.637Z,7.30
2022-10-11T02:24:19.636Z,7.24
2022-10-11T02:25:19.647Z,7.27
2022-10-11T02:26:19.616Z,7.25
2022-10-11T02:27:19.595Z,7.21
2022-10-11T02:28:19.633Z,7.16
2022-10-11T02:29:19.577Z,7.13
2022-10-11T02:30:19.577Z,7.09
2022-10-11T02:31:19.556Z,7.06
2022-10-11T02:32:19.560Z,7.03
2022-10-11T02:33:19.546Z,6.99
2022-10-11T02:34:19.539Z,6.97
2022-10-11T02:35:19.536Z,6.95
2022-10-11T02:36:19.506Z,6.99
2022-10-11T02:37:19.491Z,7.06
2022-10-11T02:38:19.486Z,7.10
2022-10-11T02:39:19.466Z,7.17
2022-10-11T02:40:19.530Z,7.23
2022-10-11T02:41:19.448Z,7.24
2022-10-11T02:42:19.448Z,7.23
2022-10-11T02:43:19.427Z,7.23
2022-10-11T02:44:19.418Z,7.27
2022-10-11T02:45:19.428Z,7.25
2022-10-11T02:46:19.398Z,7.27
2022-10-11T02:47:19.409Z,7.25
2022-10-11T02:48:19.369Z,7.21
2022-10-11T02:49:19.359Z,7.20
2022-10-11T02:50:19.384Z,7.17
2022-10-11T02:51:19.362Z,7.21
2022-10-11T02:52:19.341Z,7.24
2022-10-11T02:53:19.399Z,7.25
2022-10-11T02:54:19.292Z,7.27
2022-10-11T02:55:19.307Z,7.34
2022-10-11T02:56:19.291Z,7.35
2022-10-11T02:57:19.268Z,7.45
2022-10-11T02:58:19.383Z,7.48
2022-10-11T02:59:19.251Z,7.48
2022-10-11T03:00:19.263Z,7.45
2022-10-11T03:01:19.293Z,7.42
2022-10-11T03:02:19.240Z,7.40
2022-10-11T03:03:19.201Z,7.37
2022-10-11T03:04:19.200Z,7.35
2022-10-11T03:05:19.202Z,7.34
2022-10-11T03:06:19.174Z,7.35
2022-10-11T03:07:19.171Z,7.34
2022-10-11T03:08:19.142Z,7.31
2022-10-11T03:09:19.229Z,7.27
2022-10-11T03:10:19.135Z,7.21
2022-10-11T03:11:19.115Z,7.13
2022-10-11T03:12:19.122Z,7.09
2022-10-11T03:13:19.115Z,7.03
2022-10-11T03:14:19.075Z,6.98
2022-10-11T03:15:19.072Z,6.97
2022-10-11T03:16:19.064Z,6.94
2022-10-11T03:17:35.724Z,6.94
2022-10-11T03:18:20.032Z,6.89
2022-10-11T03:19:19.533Z,6.88
2022-10-11T03:20:19.056Z,6.94
2022-10-11T03:21:19.003Z,6.95
2022-10-11T03:22:19.022Z,6.98
2022-10-11T03:23:18.983Z,7.02
2022-10-11T03:24:18.962Z,7.05
2022-10-11T03:25:18.997Z,7.05
2022-10-11T03:26:19.024Z,7.07
2022-10-11T03:27:18.934Z,7.15
2022-10-11T03:28:19.213Z,7.15
2022-10-11T03:29:18.915Z,7.10
2022-10-11T03:30:18.903Z,7.07
2022-10-11T03:31:18.904Z,7.03
2022-10-11T03:32:18.884Z,6.99
2022-10-11T03:33:18.866Z,6.98
2022-10-11T03:34:18.853Z,6.94
2022-10-11T03:35:18.863Z,6.89
2022-10-11T03:36:18.943Z,6.81
2022-10-11T03:37:18.824Z,6.80
2022-10-11T03:38:18.815Z,6.80
2022-10-11T03:39:18.804Z,6.80
2022-10-11T03:40:18.795Z,6.74
2022-10-11T03:41:18.790Z,6.73
2022-10-11T03:42:18.763Z,6.71
2022-10-11T03:43:18.758Z,6.73
2022-10-11T03:44:18.745Z,6.74
2022-10-11T03:45:18.756Z,6.76
2022-10-11T03:46:18.786Z,6.80
2022-10-11T03:47:18.715Z,6.87
2022-10-11T03:48:18.696Z,6.92
2022-10-11T03:49:18.705Z,6.94
2022-10-11T03:50:18.747Z,6.95
2022-10-11T03:51:18.666Z,6.95
2022-10-11T03:52:18.696Z,6.95
2022-10-11T03:53:18.656Z,6.95
2022-10-11T03:54:18.636Z,6.97
2022-10-11T03:55:18.657Z,6.98
2022-10-11T03:56:18.645Z,7.02
2022-10-11T03:57:18.597Z,7.05
2022-10-11T03:58:18.619Z,7.05
2022-10-11T03:59:18.639Z,7.05
2022-10-11T04:00:18.578Z,7.03
2022-10-11T04:01:18.651Z,6.98
2022-10-11T04:02:18.556Z,6.95
2022-10-11T04:03:18.543Z,6.92
2022-10-11T04:04:18.520Z,6.89
2022-10-11T04:05:18.517Z,6.88
2022-10-11T04:06:18.501Z,6.85
2022-10-11T04:07:18.488Z,6.80
2022-10-11T04:08:18.479Z,6.80
2022-10-11T04:09:18.470Z,6.85
2022-10-11T04:10:18.486Z,6.87
2022-10-11T04:11:18.442Z,6.87
2022-10-11T04:12:18.429Z,6.85
2022-10-11T04:13:18.418Z,6.87
2022-10-11T04:14:18.419Z,6.85
2022-10-11T04:15:18.415Z,6.81
2022-10-11T04:16:18.390Z,6.80
2022-10-11T04:17:18.378Z,6.77
2022-10-11T04:18:18.397Z,6.79
2022-10-11T04:19:18.354Z,6.79
2022-10-11T04:20:18.390Z,6.77
2022-10-11T04:21:18.331Z,6.76
2022-10-11T04:22:18.322Z,6.71
2022-10-11T04:23:18.303Z,6.73
2022-10-11T04:24:18.300Z,6.70
2022-10-11T04:25:18.294Z,6.66
2022-10-11T04:26:18.279Z,6.62
2022-10-11T04:27:18.294Z,6.62
2022-10-11T04:28:18.325Z,6.62
2022-10-11T04:29:18.242Z,6.66
2022-10-11T04:30:18.251Z,6.62
2022-10-11T04:31:18.231Z,6.59
2022-10-11T04:32:18.223Z,6.58
2022-10-11T04:33:18.192Z,6.52
2022-10-11T04:34:18.215Z,6.49
2022-10-11T04:35:18.183Z,6.48
2022-10-11T04:36:18.174Z,6.41
2022-10-11T04:37:18.153Z,6.38
2022-10-11T04:38:18.151Z,6.37
2022-10-11T04:39:18.135Z,6.38
2022-10-11T04:40:18.244Z,6.41
2022-10-11T04:41:18.111Z,6.43
2022-10-11T04:42:18.121Z,6.43
2022-10-11T04:43:18.082Z,6.43
2022-10-11T04:44:18.093Z,6.46
2022-10-11T04:45:18.072Z,6.46
2022-10-11T04:46:18.143Z,6.49
2022-10-11T04:47:18.041Z,6.52
2022-10-11T04:48:18.041Z,6.55
2022-10-11T04:49:18.012Z,6.58
2022-10-11T04:50:18.027Z,6.58
2022-10-11T04:51:17.987Z,6.59
2022-10-11T04:52:20.151Z,6.61
2022-10-11T04:53:18.972Z,6.59
2022-10-11T04:54:17.963Z,6.61
2022-10-11T04:55:17.962Z,6.61
2022-10-11T04:56:18.021Z,6.61
2022-10-11T04:57:17.924Z,6.62
2022-10-11T04:58:17.923Z,6.61
2022-10-11T04:59:17.903Z,6.62
2022-10-11T05:00:17.941Z,6.70
2022-10-11T05:01:17.884Z,6.73
2022-10-11T05:02:18.064Z,6.74
2022-10-11T05:03:17.864Z,6.81
2022-10-11T05:04:17.855Z,6.88
2022-10-11T05:05:17.875Z,6.89
2022-10-11T05:06:17.848Z,6.88
2022-10-11T05:07:17.824Z,6.91
2022-10-11T05:08:17.807Z,6.98
2022-10-11T05:09:17.799Z,6.99
2022-10-11T05:10:17.855Z,7.07
2022-10-11T05:11:17.766Z,7.10
2022-10-11T05:12:17.756Z,7.12
2022-10-11T05:13:17.752Z,7.13
2022-10-11T05:14:17.743Z,7.15
2022-10-11T05:15:17.734Z,7.16
2022-10-11T05:16:18.223Z,7.17
2022-10-11T05:17:17.706Z,7.17
2022-10-11T05:18:17.696Z,7.17
2022-10-11T05:19:17.689Z,7.15
2022-10-11T05:20:17.708Z,7.15
2022-10-11T05:21:17.657Z,7.17
2022-10-11T05:22:17.656Z,7.21
2022-10-11T05:23:17.638Z,7.21
2022-10-11T05:24:17.658Z,7.23
2022-10-11T05:25:17.628Z,7.23
2022-10-11T05:26:17.629Z,7.27
2022-10-11T05:27:17.588Z,7.25
2022-10-11T05:28:17.661Z,7.27
2022-10-11T05:29:17.576Z,7.28
2022-10-11T05:30:17.602Z,7.31
2022-10-11T05:31:17.556Z,7.31
2022-10-11T05:32:17.540Z,7.31
2022-10-11T05:33:17.527Z,7.32
2022-10-11T05:34:17.528Z,7.35
2022-10-11T05:35:17.518Z,7.39
2022-10-11T05:36:17.500Z,7.39
2022-10-11T05:37:17.487Z,7.39
2022-10-11T05:38:17.481Z,7.40
2022-10-11T05:39:17.475Z,7.40
2022-10-11T05:40:17.481Z,7.42
2022-10-11T05:41:17.448Z,7.43
2022-10-11T05:42:17.429Z,7.42
2022-10-11T05:43:17.420Z,7.43
2022-10-11T05:44:17.411Z,7.43
2022-10-11T05:45:17.410Z,7.46
2022-10-11T05:46:17.389Z,7.49
2022-10-11T05:47:17.468Z,7.50
2022-10-11T05:48:17.463Z,7.52
2022-10-11T05:49:17.360Z,7.55
2022-10-11T05:50:20.809Z,7.60
2022-10-11T05:51:18.331Z,7.60
2022-10-11T05:52:17.339Z,7.60
2022-10-11T05:53:17.318Z,7.63
2022-10-11T05:54:17.313Z,7.64
2022-10-11T05:55:17.491Z,7.67
2022-10-11T05:56:17.282Z,7.68
2022-10-11T05:57:17.501Z,7.69
2022-10-11T05:58:17.261Z,7.69
2022-10-11T05:59:17.244Z,7.69
2022-10-11T06:00:17.265Z,7.71
2022-10-11T06:01:17.296Z,7.72
2022-10-11T06:02:17.213Z,7.72
2022-10-11T06:03:17.191Z,7.74
2022-10-11T06:04:17.211Z,7.72
2022-10-11T06:05:17.306Z,7.74
2022-10-11T06:06:17.183Z,7.74
2022-10-11T06:07:17.172Z,7.77
2022-10-11T06:08:17.160Z,7.80
2022-10-11T06:09:17.131Z,7.82
2022-10-11T06:10:17.141Z,7.86
2022-10-11T06:11:17.116Z,7.90
2022-10-11T06:12:17.114Z,7.89
2022-10-11T06:13:17.103Z,7.90
2022-10-11T06:14:17.103Z,7.93
2022-10-11T06:15:17.084Z,7.97
2022-10-11T06:16:17.090Z,8.01
2022-10-11T06:17:17.055Z,8.04
2022-10-11T06:18:17.044Z,8.05
2022-10-11T06:19:17.023Z,8.05
2022-10-11T06:20:17.058Z,8.07
2022-10-11T06:21:16.996Z,8.07
2022-10-11T06:22:17.027Z,8.08
2022-10-11T06:23:16.987Z,8.11
2022-10-11T06:24:16.984Z,8.12
2022-10-11T06:25:16.985Z,8.16
2022-10-11T06:26:16.954Z,8.16
2022-10-11T06:27:16.948Z,8.18
2022-10-11T06:28:17.016Z,8.16
2022-10-11T06:29:16.919Z,8.16
2022-10-11T06:30:16.985Z,8.16
2022-10-11T06:31:16.896Z,8.20
2022-10-11T06:32:16.886Z,8.20
2022-10-11T06:33:16.886Z,8.22
2022-10-11T06:34:16.865Z,8.25
2022-10-11T06:35:16.857Z,8.26
2022-10-11T06:36:16.869Z,8.26
2022-10-11T06:37:16.826Z,8.26
2022-10-11T06:38:16.827Z,8.29
2022-10-11T06:39:16.798Z,8.33
2022-10-11T06:40:16.822Z,8.33
2022-10-11T06:41:16.783Z,8.34
2022-10-11T06:42:16.780Z,8.34
2022-10-11T06:43:16.770Z,8.36
2022-10-11T06:44:16.752Z,8.38
2022-10-11T06:45:16.751Z,8.40
2022-10-11T06:46:16.741Z,8.43
2022-10-11T06:47:16.767Z,8.45
2022-10-11T06:48:16.736Z,8.45
2022-10-11T06:49:22.231Z,8.50
2022-10-11T06:50:29.892Z,8.52
2022-10-11T06:51:17.674Z,8.53
2022-10-11T06:52:16.670Z,8.55
2022-10-11T06:53:16.661Z,8.58
2022-10-11T06:54:16.641Z,8.62
2022-10-11T06:55:16.660Z,8.59
2022-10-11T06:56:16.651Z,8.62
2022-10-11T06:57:16.619Z,8.66
2022-10-11T06:58:16.622Z,8.68
2022-10-11T06:59:16.599Z,8.70
2022-10-11T07:00:16.671Z,8.74
2022-10-11T07:01:16.615Z,8.74
2022-10-11T07:02:16.576Z,8.76
2022-10-11T07:03:16.548Z,8.76
2022-10-11T07:04:16.537Z,8.81
2022-10-11T07:05:16.533Z,8.80
2022-10-11T07:06:16.538Z,8.81
2022-10-11T07:07:16.503Z,8.84
2022-10-11T07:08:16.493Z,8.87
2022-10-11T07:09:16.471Z,8.84
2022-10-11T07:10:16.483Z,8.86
2022-10-11T07:11:16.469Z,8.87
2022-10-11T07:12:16.505Z,8.91
2022-10-11T07:13:17.441Z,8.94
2022-10-11T07:14:16.425Z,8.95
2022-10-11T07:15:16.402Z,8.96
2022-10-11T07:16:16.413Z,8.96
2022-10-11T07:17:16.405Z,8.98
2022-10-11T07:18:16.397Z,9.01
2022-10-11T07:19:16.372Z,9.02
2022-10-11T07:20:16.375Z,9.04
2022-10-11T07:21:16.343Z,9.10
2022-10-11T07:22:16.339Z,9.13
2022-10-11T07:23:16.348Z,9.15
2022-10-11T07:24:16.315Z,9.18
2022-10-11T07:25:16.324Z,9.21
2022-10-11T07:26:16.288Z,9.21
2022-10-11T07:27:16.274Z,9.26
2022-10-11T07:28:16.327Z,9.28
2022-10-11T07:29:16.254Z,9.33
2022-10-11T07:30:16.266Z,9.36
2022-10-11T07:31:16.248Z,9.40
2022-10-11T07:32:16.241Z,9.42
2022-10-11T07:33:16.237Z,9.47
2022-10-11T07:34:16.210Z,9.50
2022-10-11T07:35:16.196Z,9.54
2022-10-11T07:36:16.285Z,9.51
2022-10-11T07:37:16.172Z,9.53
2022-10-11T07:38:16.167Z,9.54
2022-10-11T07:39:16.139Z,9.58
2022-10-11T07:40:16.140Z,9.61
2022-10-11T07:41:16.126Z,9.66
2022-10-11T07:42:16.118Z,9.71
2022-10-11T07:43:16.097Z,9.75
2022-10-11T07:44:16.120Z,9.83
2022-10-11T07:45:16.106Z,9.84
2022-10-11T07:46:16.082Z,9.86
2022-10-11T07:47:16.140Z,9.87
2022-10-11T07:48:16.061Z,9.86
2022-10-11T07:49:16.039Z,9.87
2022-10-11T07:50:16.142Z,9.89
2022-10-11T07:51:16.010Z,9.90
2022-10-11T07:52:16.150Z,9.96
2022-10-11T07:53:15.990Z,9.97
2022-10-11T07:54:15.980Z,10.04
2022-10-11T07:55:15.993Z,10.08
2022-10-11T07:56:16.033Z,9.97
2022-10-11T07:57:15.944Z,9.90
2022-10-11T07:58:15.941Z,9.90
2022-10-11T07:59:15.937Z,9.90
2022-10-11T08:00:16.005Z,9.93
2022-10-11T08:01:15.942Z,9.96
2022-10-11T08:02:15.890Z,10.02
2022-10-11T08:03:15.872Z,10.07
2022-10-11T08:04:15.889Z,10.14
2022-10-11T08:05:15.921Z,10.17
2022-10-11T08:06:15.862Z,10.22
2022-10-11T08:07:15.835Z,10.29
2022-10-11T08:08:15.836Z,10.33
2022-10-11T08:09:15.805Z,10.29
2022-10-11T08:10:15.844Z,10.30
2022-10-11T08:11:15.803Z,10.40
2022-10-11T08:12:15.784Z,10.38
2022-10-11T08:13:15.764Z,10.41
2022-10-11T08:14:15.785Z,10.47
2022-10-11T08:15:15.744Z,10.55
2022-10-11T08:16:15.750Z,10.60
2022-10-11T08:17:15.728Z,10.64
2022-10-11T08:18:15.723Z,10.70
2022-10-11T08:19:15.705Z,10.78
2022-10-11T08:20:15.696Z,10.79
2022-10-11T08:21:15.686Z,10.78
2022-10-11T08:22:15.674Z,10.76
2022-10-11T08:23:15.656Z,10.76
2022-10-11T08:24:15.686Z,10.78
2022-10-11T08:25:15.652Z,10.79
2022-10-11T08:26:15.677Z,10.81
2022-10-11T08:27:15.609Z,10.79
2022-10-11T08:28:15.754Z,10.79
2022-10-11T08:29:15.589Z,10.79
2022-10-11T08:30:15.659Z,10.79
2022-10-11T08:31:15.571Z,10.81
2022-10-11T08:32:15.577Z,10.78
2022-10-11T08:33:15.559Z,10.74
2022-10-11T08:34:15.551Z,10.78
2022-10-11T08:35:15.609Z,10.79
2022-10-11T08:36:15.588Z,10.76
2022-10-11T08:37:15.519Z,10.76
2022-10-11T08:38:15.491Z,10.78
2022-10-11T08:39:15.481Z,10.81
2022-10-11T08:40:15.557Z,10.76
2022-10-11T08:41:15.517Z,10.79
2022-10-11T08:42:15.481Z,10.78
2022-10-11T08:43:15.449Z,10.71
2022-10-11T08:44:15.446Z,10.73
2022-10-11T08:45:15.419Z,10.71
2022-10-11T08:46:15.416Z,10.70
2022-10-11T08:47:15.407Z,10.71
2022-10-11T08:48:15.405Z,10.78
2022-10-11T08:49:15.405Z,10.81
2022-10-11T08:50:15.376Z,10.84
2022-10-11T08:51:15.406Z,10.81
2022-10-11T08:52:15.334Z,10.78
2022-10-11T08:53:15.353Z,10.74
2022-10-11T08:54:15.425Z,10.78
2022-10-11T08:55:15.357Z,10.78
2022-10-11T08:56:15.293Z,10.78
2022-10-11T08:57:15.306Z,10.74
2022-10-11T08:58:15.290Z,10.78
2022-10-11T08:59:15.325Z,10.81
2022-10-11T09:00:15.415Z,10.86
2022-10-11T09:01:15.417Z,10.94
2022-10-11T09:02:15.238Z,10.92
2022-10-11T09:03:15.206Z,10.96
2022-10-11T09:04:15.199Z,11.03
2022-10-11T09:05:15.199Z,10.99
2022-10-11T09:06:15.169Z,11.04
2022-10-11T09:07:15.306Z,11.04
2022-10-11T09:08:15.159Z,11.04
2022-10-11T09:09:15.138Z,11.04
2022-10-11T09:10:15.161Z,11.04
2022-10-11T09:11:15.122Z,11.07
2022-10-11T09:12:15.109Z,11.11
2022-10-11T09:13:15.091Z,11.19
2022-10-11T09:14:15.151Z,11.22
2022-10-11T09:15:15.091Z,11.28
2022-10-11T09:16:15.070Z,11.35
2022-10-11T09:17:15.122Z,11.35
2022-10-11T09:18:15.122Z,11.24
2022-10-11T09:19:15.024Z,11.17
2022-10-11T09:20:15.285Z,11.14
2022-10-11T09:21:15.034Z,11.11
2022-10-11T09:22:15.110Z,11.11
2022-10-11T09:23:14.983Z,11.00
2022-10-11T09:24:14.980Z,11.03
2022-10-11T09:25:14.980Z,11.03
2022-10-11T09:26:14.987Z,11.14
2022-10-11T09:27:15.061Z,11.29
2022-10-11T09:28:14.970Z,11.46
2022-10-11T09:29:15.015Z,11.57
2022-10-11T09:30:14.946Z,11.62
2022-10-11T09:31:14.922Z,11.72
2022-10-11T09:32:14.906Z,11.67
2022-10-11T09:33:14.911Z,11.57
2022-10-11T09:34:14.867Z,11.51
2022-10-11T09:35:14.867Z,11.51
2022-10-11T09:36:14.850Z,11.52
2022-10-11T09:37:14.828Z,11.49
2022-10-11T09:38:14.826Z,11.55
2022-10-11T09:39:14.807Z,11.54
2022-10-11T09:40:14.819Z,11.60
2022-10-11T09:41:14.788Z,11.69
2022-10-11T09:42:14.787Z,11.86
2022-10-11T09:43:14.761Z,11.99
2022-10-11T09:44:14.761Z,11.99
2022-10-11T09:45:14.747Z,12.01
2022-10-11T09:46:14.733Z,11.98
2022-10-11T09:47:14.721Z,11.99
2022-10-11T09:48:14.725Z,12.04
2022-10-11T09:49:14.701Z,12.09
2022-10-11T09:50:14.710Z,12.17
2022-10-11T09:51:14.672Z,12.29
2022-10-11T09:52:14.710Z,12.34
2022-10-11T09:53:14.680Z,12.38
2022-10-11T09:54:14.655Z,12.49
2022-10-11T09:55:18.958Z,12.56
2022-10-11T09:56:15.653Z,12.56
2022-10-11T09:57:14.611Z,12.70
2022-10-11T09:58:14.606Z,12.75
2022-10-11T09:59:14.586Z,12.85
2022-10-11T10:00:14.605Z,12.78
2022-10-11T10:01:14.568Z,12.78
2022-10-11T10:02:14.659Z,12.77
2022-10-11T10:03:14.536Z,12.82
2022-10-11T10:04:14.578Z,12.92
2022-10-11T10:05:14.531Z,13.00
2022-10-11T10:06:14.529Z,13.10
2022-10-11T10:07:14.510Z,13.15
2022-10-11T10:08:14.521Z,13.26
2022-10-11T10:09:14.488Z,13.26
2022-10-11T10:10:14.476Z,13.29
2022-10-11T10:11:14.621Z,13.38
2022-10-11T10:12:14.440Z,13.46
2022-10-11T10:13:14.441Z,13.45
2022-10-11T10:14:14.510Z,13.49
2022-10-11T10:15:14.426Z,13.51
2022-10-11T10:16:14.463Z,13.59
2022-10-11T10:17:14.402Z,13.59
2022-10-11T10:18:14.543Z,13.59
2022-10-11T10:19:14.374Z,13.57
2022-10-11T10:20:14.386Z,13.59
2022-10-11T10:21:14.369Z,13.66
2022-10-11T10:22:14.382Z,13.75
2022-10-11T10:23:14.328Z,13.78
2022-10-11T10:24:14.334Z,13.81
2022-10-11T10:25:14.338Z,13.89
2022-10-11T10:26:14.683Z,13.92
2022-10-11T10:27:14.316Z,13.87
2022-10-11T10:28:14.307Z,13.84
2022-10-11T10:29:14.271Z,13.85
2022-10-11T10:30:14.281Z,13.91
2022-10-11T10:31:14.267Z,13.99
2022-10-11T10:32:15.335Z,14.06
2022-10-11T10:33:14.221Z,14.15
2022-10-11T10:34:14.254Z,14.25
2022-10-11T10:35:14.228Z,14.28
2022-10-11T10:36:14.207Z,14.27
2022-10-11T10:37:14.195Z,14.36
2022-10-11T10:38:14.211Z,14.45
2022-10-11T10:39:14.195Z,14.51
2022-10-11T10:40:14.173Z,14.51
2022-10-11T10:41:14.174Z,14.58
2022-10-11T10:42:14.222Z,14.57
2022-10-11T10:43:14.125Z,14.51
2022-10-11T10:44:14.187Z,14.60
2022-10-11T10:45:18.650Z,14.60
2022-10-11T10:46:15.108Z,14.62
2022-10-11T10:47:14.088Z,14.64
2022-10-11T10:48:14.478Z,14.60
2022-10-11T10:50:15.105Z,14.77
2022-10-11T10:51:14.060Z,14.81
2022-10-11T10:52:14.067Z,14.84
2022-10-11T10:53:14.035Z,14.83
2022-10-11T10:54:14.041Z,14.88
2022-10-11T10:55:14.025Z,14.80
2022-10-11T10:56:14.006Z,14.77
2022-10-11T10:57:14.017Z,14.77
2022-10-11T10:58:18.490Z,14.86
2022-10-11T10:59:14.007Z,14.92
2022-10-11T11:00:14.134Z,14.92
2022-10-11T11:01:14.000Z,14.95
2022-10-11T11:02:35.513Z,14.99
2022-10-11T11:03:14.917Z,15.02
2022-10-11T11:04:13.977Z,15.10
2022-10-11T11:05:13.913Z,15.19
2022-10-11T11:06:13.898Z,15.17
2022-10-11T11:07:13.880Z,15.14
2022-10-11T11:08:13.869Z,15.03
2022-10-11T11:09:13.863Z,15.01
2022-10-11T11:10:14.014Z,14.96
2022-10-11T11:11:13.883Z,14.81
2022-10-11T11:12:13.852Z,14.80
2022-10-11T11:13:13.840Z,14.88
2022-10-11T11:14:13.873Z,14.94
2022-10-11T11:15:13.802Z,15.03
2022-10-11T11:16:13.816Z,15.06
2022-10-11T11:17:13.784Z,15.10
2022-10-11T11:18:13.775Z,15.10
2022-10-11T11:19:13.778Z,15.25
2022-10-11T11:20:13.805Z,15.29
2022-10-11T11:21:13.786Z,15.28
2022-10-11T11:22:13.738Z,15.35
2022-10-11T11:23:13.731Z,15.44
2022-10-11T11:24:13.710Z,15.47
2022-10-11T11:25:13.709Z,15.46
2022-10-11T11:26:13.748Z,15.38
2022-10-11T11:27:13.680Z,15.34
2022-10-11T11:28:13.725Z,15.36
2022-10-11T11:29:13.661Z,15.35
2022-10-11T11:30:13.767Z,15.35
2022-10-11T11:31:13.651Z,15.34
2022-10-11T11:32:13.661Z,15.35
2022-10-11T11:33:13.623Z,15.39
2022-10-11T11:34:13.639Z,15.44
2022-10-11T11:35:13.614Z,15.38
2022-10-11T11:36:13.643Z,15.38
2022-10-11T11:37:13.583Z,15.20
2022-10-11T11:38:13.575Z,14.98
2022-10-11T11:39:13.566Z,14.78
2022-10-11T11:40:13.628Z,14.70
2022-10-11T11:41:13.562Z,14.75
2022-10-11T11:42:13.538Z,14.81
2022-10-11T11:43:13.527Z,14.92
2022-10-11T11:44:13.535Z,15.03
2022-10-11T11:45:13.548Z,15.10
2022-10-11T11:46:13.518Z,15.14
2022-10-11T11:47:13.499Z,15.21
2022-10-11T11:48:13.491Z,15.25
2022-10-11T11:49:13.463Z,15.34
2022-10-11T11:50:13.465Z,15.34
2022-10-11T11:51:13.448Z,15.34
2022-10-11T11:52:13.447Z,15.31
2022-10-11T11:53:13.429Z,15.38
2022-10-11T11:54:13.442Z,15.57
2022-10-11T11:55:13.414Z,15.71
2022-10-11T11:56:13.407Z,15.80
2022-10-11T11:57:13.384Z,15.76
2022-10-11T11:58:13.377Z,15.71
2022-10-11T11:59:13.366Z,15.62
2022-10-11T12:00:13.357Z,15.67
2022-10-11T12:01:13.388Z,15.82
2022-10-11T12:02:13.434Z,15.86
2022-10-11T12:03:13.318Z,15.83
2022-10-11T12:04:13.380Z,15.84
2022-10-11T12:05:13.314Z,15.97
2022-10-11T12:06:13.319Z,15.90
2022-10-11T12:07:17.470Z,16.00
2022-10-11T12:08:13.298Z,15.96
2022-10-11T12:09:13.261Z,15.76
2022-10-11T12:10:13.278Z,15.72
2022-10-11T12:11:13.253Z,15.56
2022-10-11T12:12:13.443Z,15.60
2022-10-11T12:13:13.244Z,15.46
2022-10-11T12:14:13.235Z,15.50
2022-10-11T12:15:13.210Z,15.57
2022-10-11T12:16:13.276Z,15.57
2022-10-11T12:17:13.186Z,15.60
2022-10-11T12:18:13.187Z,15.59
2022-10-11T12:19:13.157Z,15.41
2022-10-11T12:20:13.196Z,15.23
2022-10-11T12:21:13.151Z,15.14
2022-10-11T12:22:13.138Z,15.16
2022-10-11T12:23:16.653Z,15.28
2022-10-11T12:24:14.179Z,15.41
2022-10-11T12:25:17.696Z,15.62
2022-10-11T12:26:14.102Z,15.64
2022-10-11T12:27:13.081Z,15.38
2022-10-11T12:28:13.128Z,15.20
2022-10-11T12:29:13.065Z,15.03
2022-10-11T12:30:13.112Z,14.91
2022-10-11T12:31:13.173Z,14.81
2022-10-11T12:32:13.033Z,14.77
2022-10-11T12:33:13.031Z,14.73
2022-10-11T12:34:13.044Z,14.61
2022-10-11T12:35:13.007Z,14.68
2022-10-11T12:36:13.637Z,14.91
2022-10-11T12:37:13.154Z,15.06
2022-10-11T12:38:12.966Z,15.06
2022-10-11T12:39:13.046Z,15.03
2022-10-11T12:40:12.967Z,15.10
2022-10-11T12:41:13.100Z,15.20
2022-10-11T12:42:12.980Z,15.14
2022-10-11T12:43:13.001Z,15.19
2022-10-11T12:44:13.079Z,15.27
2022-10-11T12:45:12.903Z,15.29
2022-10-11T12:46:13.102Z,15.35
2022-10-11T12:47:12.891Z,15.50
2022-10-11T12:48:12.892Z,15.64
2022-10-11T12:49:13.080Z,15.72
2022-10-11T12:50:12.842Z,15.72
2022-10-11T12:51:12.872Z,15.76
2022-10-11T12:52:12.896Z,15.87
2022-10-11T12:53:12.847Z,15.97
2022-10-11T12:54:26.698Z,16.00
2022-10-11T12:55:13.804Z,16.04
2022-10-11T12:56:12.837Z,16.02
2022-10-11T12:57:12.844Z,16.07
2022-10-11T12:58:12.798Z,16.09
2022-10-11T12:59:12.748Z,16.23
2022-10-11T13:00:12.761Z,16.35
2022-10-11T13:01:12.779Z,16.38
2022-10-11T13:02:12.720Z,16.34
2022-10-11T13:03:12.698Z,16.33
2022-10-11T13:04:12.779Z,16.38
2022-10-11T13:05:12.690Z,16.31
2022-10-11T13:06:12.680Z,16.25
2022-10-11T13:07:12.673Z,16.25
2022-10-11T13:08:12.691Z,16.24
2022-10-11T13:09:12.641Z,16.20